createdAt,value
2018-12-23T00:00:36.334Z,101434.10
2018-12-23T00:03:03.738Z,101434.17
2018-12-23T00:05:31.136Z,101428.19
2018-12-23T00:07:58.563Z,101421.86
2018-12-23T00:10:25.985Z,101422.72
2018-12-23T00:12:53.383Z,101420.83
2018-12-23T00:15:20.869Z,101422.56
2018-12-23T00:17:48.278Z,101428.62
2018-12-23T00:20:15.772Z,101437.97
2018-12-23T00:22:43.213Z,101437.66
2018-12-23T00:25:10.640Z,101440.11
2018-12-23T00:27:38.035Z,101443.69
2018-12-23T00:30:06.787Z,101447.85
2018-12-23T00:32:34.191Z,101436.53
2018-12-23T00:35:01.608Z,101441.48
2018-12-23T00:37:29.005Z,101445.89
2018-12-23T00:39:56.417Z,101443.06
2018-12-23T00:42:23.824Z,101441.41
2018-12-23T00:44:51.214Z,101447.70
2018-12-23T00:47:18.669Z,101443.85
2018-12-23T00:49:46.067Z,101448.53
2018-12-23T00:52:13.486Z,101450.46
2018-12-23T00:54:40.877Z,101451.28
2018-12-23T00:57:08.277Z,101451.56
2018-12-23T00:59:35.691Z,101448.50
2018-12-23T01:02:03.100Z,101446.80
2018-12-23T01:04:30.538Z,101452.83
2018-12-23T01:06:57.929Z,101448.14
2018-12-23T01:09:25.367Z,101444.33
2018-12-23T01:11:52.796Z,101450.42
2018-12-23T01:14:20.249Z,101450.70
2018-12-23T01:16:47.714Z,101452.31
2018-12-23T01:19:15.122Z,101457.74
2018-12-23T01:21:42.522Z,101453.96
2018-12-23T01:24:09.936Z,101457.52
2018-12-23T01:26:37.353Z,101461.92
2018-12-23T01:29:04.765Z,101461.05
2018-12-23T01:31:32.153Z,101470.14
2018-12-23T01:33:59.556Z,101462.67
2018-12-23T01:36:26.954Z,101456.88
2018-12-23T01:38:54.383Z,101456.30
2018-12-23T01:41:21.770Z,101458.46
2018-12-23T01:43:49.170Z,101454.53
2018-12-23T01:46:16.568Z,101437.14
2018-12-23T01:48:43.969Z,101436.55
2018-12-23T01:51:11.398Z,101436.55
2018-12-23T01:53:38.818Z,101434.55
2018-12-23T01:56:06.238Z,101438.44
2018-12-23T01:58:33.661Z,101431.08
2018-12-23T02:01:01.062Z,101431.08
2018-12-23T02:03:28.466Z,101433.59
2018-12-23T02:05:55.870Z,101429.14
2018-12-23T02:08:23.275Z,101424.39
2018-12-23T02:10:50.692Z,101426.03
2018-12-23T02:13:18.219Z,101424.11
2018-12-23T02:15:45.621Z,101424.39
2018-12-23T02:18:13.042Z,101427.97
2018-12-23T02:20:40.457Z,101425.22
2018-12-23T02:23:07.846Z,101429.03
2018-12-23T02:25:35.356Z,101428.23
2018-12-23T02:28:02.744Z,101440.92
2018-12-23T02:30:30.185Z,101429.14
2018-12-23T02:32:57.577Z,101432.25
2018-12-23T02:35:24.998Z,101435.01
2018-12-23T02:37:52.406Z,101436.39
2018-12-23T02:40:19.810Z,101431.98
2018-12-23T02:42:47.207Z,101440.52
2018-12-23T02:45:14.610Z,101435.25
2018-12-23T02:47:42.035Z,101433.31
2018-12-23T02:50:09.429Z,101437.14
2018-12-23T02:52:36.860Z,101426.39
2018-12-23T02:55:04.326Z,101431.86
2018-12-23T02:57:31.709Z,101432.45
2018-12-23T02:59:59.132Z,101426.13
2018-12-23T03:02:26.520Z,101430.52
2018-12-23T03:04:53.950Z,101429.14
2018-12-23T03:07:21.345Z,101433.79
2018-12-23T03:09:48.779Z,101433.23
2018-12-23T03:12:16.169Z,101432.92
2018-12-23T03:14:43.566Z,101435.99
2018-12-23T03:17:11.003Z,101441.19
2018-12-23T03:19:38.432Z,101433.16
2018-12-23T03:22:05.839Z,101430.17
2018-12-23T03:24:33.231Z,101430.41
2018-12-23T03:27:00.629Z,101428.23
2018-12-23T03:29:28.033Z,101429.30
2018-12-23T03:31:55.869Z,101424.86
2018-12-23T03:34:23.348Z,101431.19
2018-12-23T03:36:50.753Z,101424.30
2018-12-23T03:39:18.150Z,101423.13
2018-12-23T03:41:45.558Z,101415.69
2018-12-23T03:44:12.983Z,101420.84
2018-12-23T03:46:40.384Z,101417.45
2018-12-23T03:49:08.024Z,101423.23
2018-12-23T03:51:35.577Z,101419.97
2018-12-23T03:54:02.994Z,101423.55
2018-12-23T03:56:30.426Z,101424.10
2018-12-23T03:58:57.820Z,101430.17
2018-12-23T04:01:25.218Z,101421.95
2018-12-23T04:03:52.618Z,101429.70
2018-12-23T04:06:24.472Z,101432.72
2018-12-23T04:08:49.500Z,101429.77
2018-12-23T04:11:16.946Z,101430.02
2018-12-23T04:13:44.327Z,101428.95
2018-12-23T04:16:11.731Z,101435.20
2018-12-23T04:18:39.151Z,101430.84
2018-12-23T04:21:06.557Z,101420.33
2018-12-23T04:23:34.071Z,101425.80
2018-12-23T04:26:01.475Z,101422.22
2018-12-23T04:28:28.867Z,101422.22
2018-12-23T04:30:56.277Z,101426.86
2018-12-23T04:33:23.679Z,101425.44
2018-12-23T04:35:51.114Z,101428.70
2018-12-23T04:38:18.511Z,101430.88
2018-12-23T04:40:46.030Z,101425.67
2018-12-23T04:43:13.428Z,101427.45
2018-12-23T04:45:40.826Z,101422.57
2018-12-23T04:48:08.219Z,101426.39
2018-12-23T04:50:35.646Z,101422.53
2018-12-23T04:53:03.066Z,101419.19
2018-12-23T04:55:30.487Z,101420.64
2018-12-23T04:57:57.925Z,101418.95
2018-12-23T05:00:25.411Z,101419.70
2018-12-23T05:02:52.814Z,101413.32
2018-12-23T05:05:20.239Z,101416.94
2018-12-23T05:07:47.634Z,101424.85
2018-12-23T05:10:15.050Z,101423.98
2018-12-23T05:12:42.450Z,101416.50
2018-12-23T05:15:09.847Z,101408.78
2018-12-23T05:17:37.250Z,101414.61
2018-12-23T05:20:04.640Z,101410.20
2018-12-23T05:22:32.062Z,101410.20
2018-12-23T05:24:59.467Z,101420.44
2018-12-23T05:27:26.875Z,101420.72
2018-12-23T05:29:54.265Z,101414.77
2018-12-23T05:32:21.678Z,101413.80
2018-12-23T05:34:49.069Z,101424.55
2018-12-23T05:37:16.472Z,101419.11
2018-12-23T05:39:44.087Z,101418.80
2018-12-23T05:42:11.485Z,101423.99
2018-12-23T05:44:38.875Z,101433.08
2018-12-23T05:47:06.282Z,101433.67
2018-12-23T05:49:33.674Z,101421.03
2018-12-23T05:52:01.082Z,101414.11
2018-12-23T05:54:28.473Z,101420.37
2018-12-23T05:56:55.882Z,101424.19
2018-12-23T05:59:23.299Z,101422.77
2018-12-23T06:01:50.726Z,101421.39
2018-12-23T06:04:18.114Z,101423.63
2018-12-23T06:06:45.517Z,101430.80
2018-12-23T06:09:12.914Z,101431.03
2018-12-23T06:11:40.323Z,101427.73
2018-12-23T06:14:07.718Z,101431.30
2018-12-23T06:16:35.127Z,101434.61
2018-12-23T06:19:02.519Z,101433.79
2018-12-23T06:21:29.930Z,101437.37
2018-12-23T06:23:57.317Z,101438.44
2018-12-23T06:26:24.750Z,101440.13
2018-12-23T06:28:52.151Z,101447.61
2018-12-23T06:31:19.547Z,101450.95
2018-12-23T06:33:46.951Z,101444.30
2018-12-23T06:36:14.344Z,101443.48
2018-12-23T06:38:41.850Z,101444.30
2018-12-23T06:41:09.246Z,101443.83
2018-12-23T06:43:36.658Z,101444.14
2018-12-23T06:46:04.055Z,101446.34
2018-12-23T06:48:31.557Z,101434.50
2018-12-23T06:50:58.974Z,101448.23
2018-12-23T06:53:26.379Z,101443.83
2018-12-23T06:55:53.775Z,101438.91
2018-12-23T06:58:21.175Z,101441.66
2018-12-23T07:00:48.613Z,101446.34
2018-12-23T07:03:16.047Z,101449.41
2018-12-23T07:05:43.439Z,101449.10
2018-12-23T07:08:10.834Z,101444.66
2018-12-23T07:10:38.243Z,101444.70
2018-12-23T07:13:05.679Z,101446.39
2018-12-23T07:15:33.071Z,101447.21
2018-12-23T07:18:00.583Z,101448.62
2018-12-23T07:20:27.970Z,101450.56
2018-12-23T07:22:55.394Z,101445.36
2018-12-23T07:25:22.795Z,101451.73
2018-12-23T07:27:50.200Z,101447.36
2018-12-23T07:30:17.606Z,101445.63
2018-12-23T07:32:45.005Z,101443.08
2018-12-23T07:35:12.411Z,101449.14
2018-12-23T07:37:39.852Z,101440.63
2018-12-23T07:40:07.240Z,101449.69
2018-12-23T07:42:34.636Z,101455.20
2018-12-23T07:45:02.036Z,101448.27
2018-12-23T07:47:29.539Z,101455.16
2018-12-23T07:49:56.953Z,101455.44
2018-12-23T07:52:24.379Z,101466.97
2018-12-23T07:54:51.798Z,101456.81
2018-12-23T07:57:19.226Z,101461.50
2018-12-23T07:59:46.622Z,101457.05
2018-12-23T08:02:14.042Z,101440.20
2018-12-23T08:04:41.435Z,101447.97
2018-12-23T08:07:08.822Z,101450.98
2018-12-23T08:09:36.226Z,101455.88
2018-12-23T08:12:03.626Z,101458.91
2018-12-23T08:14:31.026Z,101458.03
2018-12-23T08:16:58.423Z,101448.39
2018-12-23T08:19:25.859Z,101446.46
2018-12-23T08:21:53.251Z,101449.77
2018-12-23T08:24:20.671Z,101454.45
2018-12-23T08:26:48.063Z,101448.70
2018-12-23T08:29:15.463Z,101455.32
2018-12-23T08:31:42.887Z,101449.30
2018-12-23T08:34:10.321Z,101444.61
2018-12-23T08:36:37.715Z,101451.70
2018-12-23T08:39:05.649Z,101449.73
2018-12-23T08:41:33.159Z,101451.30
2018-12-23T08:44:00.674Z,101445.75
2018-12-23T08:46:28.063Z,101453.43
2018-12-23T08:48:55.487Z,101453.19
2018-12-23T08:51:22.885Z,101452.32
2018-12-23T08:53:50.284Z,101449.02
2018-12-23T08:56:17.697Z,101445.44
2018-12-23T08:58:45.093Z,101448.42
2018-12-23T09:01:12.495Z,101441.25
2018-12-23T09:03:39.894Z,101454.21
2018-12-23T09:06:07.313Z,101451.45
2018-12-23T09:08:34.714Z,101456.70
2018-12-23T09:11:02.113Z,101458.66
2018-12-23T09:13:29.515Z,101459.96
2018-12-23T09:15:56.919Z,101451.97
2018-12-23T09:18:24.318Z,101450.59
2018-12-23T09:20:51.722Z,101454.96
2018-12-23T09:23:19.129Z,101448.34
2018-12-23T09:25:46.529Z,101460.11
2018-12-23T09:28:14.159Z,101451.25
2018-12-23T09:30:41.556Z,101458.09
2018-12-23T09:33:08.947Z,101457.52
2018-12-23T09:35:36.358Z,101459.41
2018-12-23T09:38:03.754Z,101456.36
2018-12-23T09:40:31.162Z,101450.22
2018-12-23T09:42:58.555Z,101447.46
2018-12-23T09:45:26.074Z,101445.84
2018-12-23T09:47:53.474Z,101446.39
2018-12-23T09:50:20.916Z,101448.38
2018-12-23T09:52:48.306Z,101449.52
2018-12-23T09:55:15.709Z,101446.75
2018-12-23T09:57:43.127Z,101448.38
2018-12-23T10:00:10.533Z,101444.51
2018-12-23T10:02:37.926Z,101447.81
2018-12-23T10:05:05.982Z,101435.97
2018-12-23T10:07:33.393Z,101439.36
2018-12-23T10:10:00.789Z,101442.66
2018-12-23T10:12:28.194Z,101431.59
2018-12-23T10:14:55.630Z,101433.06
2018-12-23T10:17:23.059Z,101429.56
2018-12-23T10:19:50.465Z,101429.56
2018-12-23T10:22:17.853Z,101431.77
2018-12-23T10:24:45.351Z,101428.18
2018-12-23T10:27:12.746Z,101423.17
2018-12-23T10:29:40.166Z,101422.86
2018-12-23T10:32:07.561Z,101413.17
2018-12-23T10:34:34.970Z,101407.34
2018-12-23T10:37:02.373Z,101402.61
2018-12-23T10:39:29.770Z,101406.98
2018-12-23T10:41:57.178Z,101411.94
2018-12-23T10:44:24.675Z,101403.39
2018-12-23T10:46:52.095Z,101402.02
2018-12-23T10:49:19.504Z,101404.22
2018-12-23T10:51:46.898Z,101406.11
2018-12-23T10:54:14.358Z,101406.88
2018-12-23T10:56:41.787Z,101400.69
2018-12-23T10:59:09.174Z,101401.80
2018-12-23T11:01:36.573Z,101402.06
2018-12-23T11:04:03.997Z,101389.61
2018-12-23T11:06:31.402Z,101384.38
2018-12-23T11:08:59.131Z,101383.51
2018-12-23T11:11:26.712Z,101377.48
2018-12-23T11:13:54.100Z,101373.98
2018-12-23T11:16:21.502Z,101373.48
2018-12-23T11:18:48.895Z,101364.89
2018-12-23T11:21:16.322Z,101366.78
2018-12-23T11:23:43.733Z,101361.45
2018-12-23T11:26:11.135Z,101362.59
2018-12-23T11:29:13.429Z,101362.97
2018-12-23T11:31:41.763Z,101373.48
2018-12-23T11:34:10.052Z,101375.87
2018-12-23T11:36:38.348Z,101362.67
2018-12-23T11:39:46.748Z,101353.82
2018-12-23T11:42:15.058Z,101358.55
2018-12-23T11:44:43.346Z,101351.37
2018-12-23T11:47:11.649Z,101350.80
2018-12-23T11:49:39.967Z,101334.67
2018-12-23T11:52:08.274Z,101330.53
2018-12-23T11:54:36.566Z,101332.37
2018-12-23T11:57:04.870Z,101332.39
2018-12-23T11:59:34.355Z,101324.86
2018-12-23T12:02:03.209Z,101328.45
2018-12-23T12:04:31.515Z,101332.58
2018-12-23T12:06:59.828Z,101334.83
2018-12-23T12:09:28.147Z,101331.24
2018-12-23T12:11:56.473Z,101330.70
2018-12-23T12:14:24.860Z,101334.28
2018-12-23T12:16:53.147Z,101339.78
2018-12-23T12:19:21.444Z,101337.08
2018-12-23T12:21:49.751Z,101331.16
2018-12-23T12:24:37.482Z,101338.52
2018-12-23T12:27:05.807Z,101341.08
2018-12-23T12:29:34.129Z,101339.01
2018-12-23T12:32:02.425Z,101336.83
2018-12-23T12:34:30.714Z,101335.90
2018-12-23T12:36:59.052Z,101343.47
2018-12-23T12:39:27.343Z,101338.61
2018-12-23T12:44:29.968Z,101342.02
2018-12-23T12:46:58.347Z,101336.17
2018-12-23T12:49:26.640Z,101338.02
2018-12-23T12:51:54.932Z,101333.18
2018-12-23T12:54:23.255Z,101334.06
2018-12-23T12:56:51.572Z,101323.28
2018-12-23T12:59:19.874Z,101331.56
2018-12-23T13:01:48.190Z,101330.30
2018-12-23T13:04:16.498Z,101320.69
2018-12-23T13:06:44.820Z,101320.25
2018-12-23T13:09:13.145Z,101317.87
2018-12-23T13:11:41.461Z,101321.00
2018-12-23T13:14:09.743Z,101322.76
2018-12-23T13:16:38.029Z,101315.97
2018-12-23T13:19:06.352Z,101316.29
2018-12-23T13:21:34.644Z,101312.48
2018-12-23T13:24:02.960Z,101317.04
2018-12-23T13:26:31.245Z,101311.95
2018-12-23T13:28:59.546Z,101298.53
2018-12-23T13:31:27.829Z,101301.30
2018-12-23T13:33:56.126Z,101305.25
2018-12-23T13:36:24.414Z,101306.44
2018-12-23T13:38:52.734Z,101307.82
2018-12-23T13:41:59.815Z,101313.84
2018-12-23T13:45:08.237Z,101310.76
2018-12-23T13:54:17.331Z,101321.61
2018-12-23T14:00:25.725Z,101309.62
2018-12-23T14:12:09.961Z,101297.91
2018-12-23T14:14:38.270Z,101291.02
2018-12-23T14:17:06.582Z,101281.31
2018-12-23T14:19:34.881Z,101274.66
2018-12-23T14:22:03.169Z,101281.00
2018-12-23T14:24:31.455Z,101274.61
2018-12-23T14:26:59.780Z,101268.32
2018-12-23T14:29:28.069Z,101273.92
2018-12-23T14:31:56.387Z,101271.59
2018-12-23T14:34:24.702Z,101271.40
2018-12-23T14:36:53.013Z,101264.51
2018-12-23T14:39:26.167Z,101270.26
2018-12-23T14:41:51.330Z,101264.80
2018-12-23T14:44:19.617Z,101260.93
2018-12-23T14:46:47.935Z,101255.15
2018-12-23T14:49:16.242Z,101257.86
2018-12-23T14:51:44.544Z,101260.00
2018-12-23T14:54:12.834Z,101258.91
2018-12-23T14:56:41.128Z,101254.55
2018-12-23T14:59:09.413Z,101256.53
2018-12-23T15:01:37.716Z,101255.97
2018-12-23T15:04:06.004Z,101255.66
2018-12-23T15:06:34.306Z,101252.39
2018-12-23T15:09:02.659Z,101256.80
2018-12-23T15:11:30.954Z,101255.42
2018-12-23T15:13:59.237Z,101244.63
2018-12-23T15:16:27.538Z,101239.89
2018-12-23T15:18:55.833Z,101244.02
2018-12-23T15:21:24.135Z,101239.02
2018-12-23T15:23:52.422Z,101240.58
2018-12-23T15:26:20.721Z,101233.58
2018-12-23T15:28:49.007Z,101224.98
2018-12-23T15:31:17.293Z,101216.07
2018-12-23T15:33:45.595Z,101213.77
2018-12-23T15:39:08.652Z,101219.83
2018-12-23T15:41:37.076Z,101213.45
2018-12-23T15:44:05.366Z,101203.54
2018-12-23T15:46:33.650Z,101200.73
2018-12-23T15:49:01.948Z,101199.62
2018-12-23T15:51:30.236Z,101192.64
2018-12-23T15:53:58.539Z,101188.77
2018-12-23T15:56:26.823Z,101193.64
2018-12-23T15:58:55.122Z,101193.02
2018-12-23T16:01:23.414Z,101191.88
2018-12-23T16:03:51.716Z,101192.64
2018-12-23T16:06:20.009Z,101184.84
2018-12-23T16:08:48.337Z,101176.89
2018-12-23T16:11:16.702Z,101181.64
2018-12-23T16:13:45.013Z,101183.82
2018-12-23T16:16:13.327Z,101186.71
2018-12-23T16:21:14.958Z,101185.39
2018-12-23T16:23:43.265Z,101178.50
2018-12-23T16:26:11.645Z,101187.14
2018-12-23T16:28:39.946Z,101187.39
2018-12-23T16:31:08.238Z,101191.78
2018-12-23T16:33:36.550Z,101196.41
2018-12-23T16:36:04.867Z,101194.31
2018-12-23T16:38:33.216Z,101191.30
2018-12-23T16:41:01.511Z,101189.27
2018-12-23T16:43:29.811Z,101190.91
2018-12-23T16:45:58.103Z,101187.80
2018-12-23T16:48:45.772Z,101181.53
2018-12-23T16:51:14.084Z,101186.09
2018-12-23T16:53:42.396Z,101188.12
2018-12-23T16:56:10.683Z,101184.12
2018-12-23T16:58:38.988Z,101185.72
2018-12-23T17:01:07.288Z,101186.09
2018-12-23T17:03:35.618Z,101182.08
2018-12-23T17:06:03.938Z,101181.31
2018-12-23T17:08:32.310Z,101182.05
2018-12-23T17:11:00.635Z,101177.22
2018-12-23T17:13:28.927Z,101172.36
2018-12-23T17:15:57.255Z,101173.05
2018-12-23T17:18:25.545Z,101170.11
2018-12-23T17:20:53.855Z,101168.13
2018-12-23T17:23:22.143Z,101172.41
2018-12-23T17:25:50.440Z,101176.10
2018-12-23T17:28:18.726Z,101174.45
2018-12-23T17:30:47.030Z,101173.95
2018-12-23T17:33:15.324Z,101168.77
2018-12-23T17:35:43.647Z,101164.95
2018-12-23T17:38:11.936Z,101160.88
2018-12-23T17:40:40.231Z,101164.19
2018-12-23T17:43:08.565Z,101169.15
2018-12-23T17:45:36.815Z,101180.67
2018-12-23T17:48:05.099Z,101179.62
2018-12-23T17:50:33.399Z,101178.23
2018-12-23T17:53:01.737Z,101173.47
2018-12-23T17:55:30.053Z,101170.54
2018-12-23T17:57:58.335Z,101172.56
2018-12-23T18:00:26.635Z,101170.23
2018-12-23T18:02:54.916Z,101173.86
2018-12-23T18:05:23.218Z,101170.61
2018-12-23T18:07:51.505Z,101165.79
2018-12-23T18:10:24.963Z,101175.54
2018-12-23T18:12:49.884Z,101172.66
2018-12-23T18:15:18.153Z,101168.39
2018-12-23T18:17:46.475Z,101169.77
2018-12-23T18:20:14.757Z,101163.48
2018-12-23T18:22:43.082Z,101156.87
2018-12-23T18:25:11.370Z,101160.73
2018-12-23T18:27:39.690Z,101156.36
2018-12-23T18:30:07.979Z,101155.17
2018-12-23T18:32:36.301Z,101154.30
2018-12-23T18:35:04.660Z,101144.66
2018-12-23T18:37:32.951Z,101160.89
2018-12-23T18:40:01.269Z,101152.87
2018-12-23T18:42:29.569Z,101158.94
2018-12-23T18:44:57.885Z,101158.38
2018-12-23T18:47:26.212Z,101146.53
2018-12-23T18:49:54.520Z,101156.50
2018-12-23T18:52:22.804Z,101156.81
2018-12-23T18:54:51.087Z,101169.50
2018-12-23T18:57:19.381Z,101165.13
2018-12-23T18:59:47.668Z,101166.19
2018-12-23T19:02:15.970Z,101168.44
2018-12-23T19:04:44.275Z,101166.00
2018-12-23T19:07:12.655Z,101166.83
2018-12-23T19:13:33.717Z,101168.25
2018-12-23T19:19:41.388Z,101165.50
2018-12-23T19:22:48.490Z,101161.69
2018-12-23T19:25:55.601Z,101161.42
2018-12-23T19:29:04.015Z,101168.86
2018-12-23T19:32:11.109Z,101172.20
2018-12-23T19:35:18.222Z,101170.82
2018-12-23T19:38:25.335Z,101172.20
2018-12-23T19:41:34.054Z,101166.92
2018-12-23T19:44:42.469Z,101158.11
2018-12-23T19:53:51.006Z,101153.98
2018-12-23T19:56:58.108Z,101169.68
2018-12-23T20:00:06.582Z,101169.68
2018-12-23T20:12:28.615Z,101176.37
2018-12-23T20:15:37.046Z,101173.13
2018-12-23T20:21:57.753Z,101171.98
2018-12-23T20:25:06.178Z,101172.56
2018-12-23T20:34:27.876Z,101176.19
2018-12-23T20:37:34.964Z,101178.95
2018-12-23T20:40:42.076Z,101186.43
2018-12-23T20:56:05.257Z,101187.81
2018-12-23T20:59:12.354Z,101197.72
2018-12-23T21:02:19.457Z,101196.34
2018-12-23T21:14:42.553Z,101203.59
2018-12-23T21:17:51.055Z,101210.20
2018-12-23T21:20:58.138Z,101219.09
2018-12-23T21:24:06.555Z,101220.75
2018-12-23T21:30:14.570Z,101228.97
2018-12-23T21:33:21.702Z,101234.47
2018-12-23T21:45:45.093Z,101246.27
2018-12-23T21:48:53.567Z,101247.37
2018-12-23T21:52:00.649Z,101249.57
2018-12-23T21:55:09.129Z,101252.88
2018-12-23T21:58:16.250Z,101255.95
2018-12-23T22:04:23.987Z,101258.14
2018-12-23T22:07:04.844Z,101264.52
2018-12-23T22:10:13.254Z,101271.45
2018-12-23T22:13:20.376Z,101272.05
2018-12-23T22:15:48.662Z,101270.23
2018-12-23T22:18:16.945Z,101274.72
2018-12-23T22:20:45.240Z,101277.16
2018-12-23T22:23:13.531Z,101276.30
2018-12-23T22:25:41.830Z,101278.73
2018-12-23T22:28:10.142Z,101282.00
2018-12-23T22:30:38.441Z,101291.63
2018-12-23T22:33:06.746Z,101293.27
2018-12-23T22:35:35.049Z,101293.00
2018-12-23T22:38:03.336Z,101297.69
2018-12-23T22:40:31.705Z,101299.89
2018-12-23T22:42:59.990Z,101295.16
2018-12-23T22:45:28.288Z,101303.70
2018-12-23T22:47:56.602Z,101307.05
2018-12-23T22:50:24.906Z,101311.17
2018-12-23T22:52:53.213Z,101306.77
2018-12-23T22:55:21.520Z,101312.55
2018-12-23T22:57:49.815Z,101311.17
2018-12-23T23:02:57.266Z,101320.53
2018-12-23T23:05:25.575Z,101325.22
2018-12-23T23:07:53.876Z,101332.69
2018-12-23T23:10:22.170Z,101326.20
2018-12-23T23:12:50.477Z,101335.91
2018-12-23T23:15:20.706Z,101341.73
2018-12-23T23:17:48.795Z,101344.83
2018-12-23T23:20:17.096Z,101344.11
2018-12-23T23:22:45.381Z,101348.11
2018-12-23T23:25:13.681Z,101351.48
2018-12-23T23:27:41.966Z,101351.55
2018-12-23T23:30:10.268Z,101359.58
2018-12-23T23:32:38.546Z,101356.86
2018-12-23T23:35:06.852Z,101361.84
2018-12-23T23:37:35.155Z,101361.33
2018-12-23T23:40:03.434Z,101372.95
2018-12-23T23:42:31.738Z,101374.08
2018-12-23T23:45:00.022Z,101376.31
2018-12-23T23:47:28.317Z,101381.02
2018-12-23T23:49:56.607Z,101387.31
2018-12-23T23:52:24.912Z,101386.52
2018-12-23T23:54:53.198Z,101390.34
2018-12-23T23:57:21.520Z,101393.84
2018-12-23T23:59:49.816Z,101395.84
